createdAt,value
2022-11-17T00:02:42.250Z,16.67
2022-11-17T00:05:13.187Z,18.02
2022-11-17T00:07:41.586Z,18.35
2022-11-17T00:10:09.982Z,17.52
2022-11-17T00:12:55.477Z,18.73
2022-11-17T00:15:23.651Z,21.15
2022-11-17T00:18:11.839Z,17.75
2022-11-17T00:20:59.707Z,24.63
2022-11-17T00:23:46.898Z,20.95
2022-11-17T00:26:17.233Z,20.67
2022-11-17T00:28:45.717Z,24.58
2022-11-17T00:31:32.455Z,19.95
2022-11-17T00:34:07.141Z,17.88
2022-11-17T00:36:42.351Z,18.05
2022-11-17T00:39:11.426Z,17.63
2022-11-17T00:41:39.663Z,16.63
2022-11-17T00:44:08.632Z,17.42
2022-11-17T00:46:38.150Z,18.25
2022-11-17T00:49:07.570Z,17.40
2022-11-17T00:51:38.530Z,19.08
2022-11-17T00:54:11.123Z,17.67
2022-11-17T00:56:39.545Z,16.42
2022-11-17T00:59:07.758Z,16.60
2022-11-17T01:01:36.020Z,16.20
2022-11-17T01:04:05.107Z,16.17
2022-11-17T01:06:34.960Z,16.50
2022-11-17T01:09:04.996Z,17.17
2022-11-17T01:11:34.978Z,15.80
2022-11-17T01:14:03.504Z,15.82
2022-11-17T01:16:32.916Z,17.05
2022-11-17T01:19:02.715Z,16.40
2022-11-17T01:21:32.226Z,16.67
2022-11-17T01:24:02.343Z,15.65
2022-11-17T01:26:32.643Z,16.20
2022-11-17T01:29:03.680Z,15.75
2022-11-17T01:31:33.383Z,16.70
2022-11-17T01:34:02.043Z,16.08
2022-11-17T01:36:51.919Z,16.27
2022-11-17T01:39:25.007Z,16.08
2022-11-17T01:41:53.875Z,15.82
2022-11-17T01:44:56.880Z,17.50
2022-11-17T01:47:30.578Z,15.95
2022-11-17T01:50:04.899Z,15.48
2022-11-17T01:52:35.811Z,16.52
2022-11-17T01:55:05.341Z,16.05
2022-11-17T01:57:39.147Z,15.50
2022-11-17T02:00:11.324Z,15.40
2022-11-17T02:02:42.111Z,15.75
2022-11-17T02:05:20.951Z,17.13
2022-11-17T02:07:52.150Z,15.70
2022-11-17T02:10:20.429Z,16.70
2022-11-17T02:12:49.894Z,16.63
2022-11-17T02:15:19.735Z,15.45
2022-11-17T02:17:48.063Z,15.63
2022-11-17T02:20:21.682Z,15.25
2022-11-17T02:23:15.449Z,16.23
2022-11-17T02:25:59.674Z,15.75
2022-11-17T02:28:31.174Z,14.45
2022-11-17T02:31:14.804Z,16.70
2022-11-17T02:33:54.056Z,15.63
2022-11-17T02:36:29.199Z,16.27
2022-11-17T02:39:03.953Z,16.40
2022-11-17T02:41:39.224Z,16.48
2022-11-17T02:44:11.226Z,17.02
2022-11-17T02:46:46.235Z,16.67
2022-11-17T02:49:20.844Z,16.45
2022-11-17T02:51:52.429Z,16.40
2022-11-17T02:54:22.435Z,15.30
2022-11-17T02:56:50.753Z,15.82
2022-11-17T02:59:25.646Z,16.45
2022-11-17T03:02:20.867Z,15.70
2022-11-17T03:05:01.190Z,15.73
2022-11-17T03:07:43.098Z,17.27
2022-11-17T03:10:16.065Z,17.88
2022-11-17T03:12:51.203Z,16.70
2022-11-17T03:15:28.756Z,16.30
2022-11-17T03:18:05.215Z,16.25
2022-11-17T03:20:41.431Z,16.23
2022-11-17T03:23:14.980Z,15.32
2022-11-17T03:25:46.720Z,16.90
2022-11-17T03:28:16.798Z,15.65
2022-11-17T03:30:49.339Z,16.45
2022-11-17T03:33:21.904Z,15.98
2022-11-17T03:35:53.751Z,15.68
2022-11-17T03:38:27.831Z,15.82
2022-11-17T03:40:59.246Z,16.35
2022-11-17T03:43:29.957Z,16.60
2022-11-17T03:46:05.135Z,17.02
2022-11-17T03:48:38.924Z,16.55
2022-11-17T03:51:11.847Z,17.00
2022-11-17T03:53:40.059Z,15.88
2022-11-17T03:56:21.078Z,15.85
2022-11-17T03:58:57.871Z,15.68
2022-11-17T04:01:30.000Z,16.92
2022-11-17T04:03:58.316Z,16.33
2022-11-17T04:06:26.664Z,16.88
2022-11-17T04:08:54.855Z,16.75
2022-11-17T04:11:40.380Z,16.77
2022-11-17T04:14:25.924Z,15.93
2022-11-17T04:16:55.642Z,16.80
2022-11-17T04:19:23.876Z,16.98
2022-11-17T04:21:52.150Z,16.67
2022-11-17T04:24:22.881Z,17.05
2022-11-17T04:27:08.384Z,16.65
2022-11-17T04:29:36.520Z,16.63
2022-11-17T04:32:06.223Z,17.42
2022-11-17T04:34:34.507Z,18.55
2022-11-17T04:37:07.961Z,18.63
2022-11-17T04:39:39.955Z,17.38
2022-11-17T04:42:07.280Z,17.45
2022-11-17T04:44:35.462Z,17.23
2022-11-17T04:47:06.928Z,17.35
2022-11-17T04:49:35.251Z,17.60
2022-11-17T04:52:03.708Z,19.10
2022-11-17T04:54:31.884Z,17.40
2022-11-17T04:57:00.159Z,18.33
2022-11-17T04:59:28.390Z,17.63
2022-11-17T05:01:58.786Z,18.50
2022-11-17T05:04:49.720Z,19.20
2022-11-17T05:07:18.149Z,17.75
2022-11-17T05:09:46.585Z,19.02
2022-11-17T05:12:32.194Z,18.50
2022-11-17T05:15:00.390Z,18.30
2022-11-17T05:17:27.676Z,18.42
2022-11-17T05:19:57.937Z,19.38
2022-11-17T05:22:43.784Z,19.23
2022-11-17T05:25:12.009Z,18.77
2022-11-17T05:27:40.144Z,18.90
2022-11-17T05:30:10.012Z,19.65
2022-11-17T05:32:38.553Z,19.55
2022-11-17T05:35:09.252Z,19.75
2022-11-17T05:37:37.489Z,19.05
2022-11-17T05:40:06.567Z,19.85
2022-11-17T05:42:35.918Z,20.13
2022-11-17T05:45:04.273Z,20.45
2022-11-17T05:47:32.512Z,18.40
2022-11-17T05:50:00.713Z,19.15
2022-11-17T05:52:30.271Z,19.88
2022-11-17T05:54:58.494Z,19.02
2022-11-17T05:57:32.012Z,20.77
2022-11-17T06:00:04.648Z,19.80
2022-11-17T06:02:45.556Z,19.63
2022-11-17T06:05:19.824Z,19.33
2022-11-17T06:07:50.201Z,21.27
2022-11-17T06:10:18.853Z,19.55
2022-11-17T06:12:47.395Z,19.52
2022-11-17T06:15:15.816Z,20.30
2022-11-17T06:17:48.216Z,19.98
2022-11-17T06:20:22.580Z,20.27
2022-11-17T06:22:52.460Z,20.60
2022-11-17T06:25:21.754Z,20.48
2022-11-17T06:27:51.326Z,19.63
2022-11-17T06:30:20.228Z,19.73
2022-11-17T06:32:50.764Z,20.13
2022-11-17T06:35:19.208Z,20.00
2022-11-17T06:37:47.449Z,19.75
2022-11-17T06:40:17.639Z,19.67
2022-11-17T06:43:03.012Z,18.95
2022-11-17T06:45:34.114Z,20.98
2022-11-17T06:48:02.332Z,19.88
2022-11-17T06:50:32.932Z,18.08
2022-11-17T06:53:02.472Z,18.05
2022-11-17T06:55:35.091Z,19.58
2022-11-17T06:58:05.439Z,19.30
2022-11-17T07:00:34.030Z,19.02
2022-11-17T07:03:03.605Z,18.75
2022-11-17T07:05:32.933Z,19.77
2022-11-17T07:08:02.431Z,17.58
2022-11-17T07:10:31.958Z,17.88
2022-11-17T07:13:01.825Z,19.05
2022-11-17T07:15:30.262Z,19.40
2022-11-17T07:17:59.376Z,18.77
2022-11-17T07:20:27.752Z,19.42
2022-11-17T07:23:00.937Z,18.23
2022-11-17T07:25:31.110Z,18.63
2022-11-17T07:28:01.432Z,17.23
2022-11-17T07:30:29.667Z,20.02
2022-11-17T07:33:00.042Z,19.70
2022-11-17T07:35:28.546Z,19.38
2022-11-17T07:37:59.259Z,19.77
2022-11-17T07:40:27.422Z,16.90
2022-11-17T07:42:55.852Z,17.27
2022-11-17T07:45:31.416Z,18.10
2022-11-17T07:48:02.201Z,17.75
2022-11-17T07:50:30.799Z,17.45
2022-11-17T07:52:59.637Z,16.95
2022-11-17T07:55:27.952Z,19.60
2022-11-17T07:57:57.333Z,19.17
2022-11-17T08:00:27.506Z,18.45
2022-11-17T08:02:55.709Z,19.58
2022-11-17T08:05:24.791Z,18.67
2022-11-17T08:07:56.494Z,16.27
2022-11-17T08:10:26.993Z,17.13
2022-11-17T08:12:56.022Z,17.73
2022-11-17T08:15:24.286Z,17.85
2022-11-17T08:17:58.108Z,15.15
2022-11-17T08:20:27.732Z,15.15
2022-11-17T08:22:56.155Z,15.77
2022-11-17T08:25:26.277Z,15.45
2022-11-17T08:27:56.170Z,16.90
2022-11-17T08:30:25.042Z,15.68
2022-11-17T08:32:56.997Z,15.10
2022-11-17T08:35:26.758Z,16.30
2022-11-17T08:37:58.229Z,16.40
2022-11-17T08:40:27.161Z,16.55
2022-11-17T08:43:00.865Z,16.13
2022-11-17T08:45:29.618Z,17.00
2022-11-17T08:47:59.295Z,17.02
2022-11-17T08:50:27.597Z,17.45
2022-11-17T08:52:55.666Z,16.75
2022-11-17T08:55:23.949Z,17.27
2022-11-17T08:57:52.121Z,19.38
2022-11-17T09:00:21.873Z,16.63
2022-11-17T09:02:50.084Z,18.67
2022-11-17T09:05:19.640Z,18.67
2022-11-17T09:07:47.908Z,18.58
2022-11-17T09:10:16.151Z,18.48
2022-11-17T09:12:44.532Z,18.17
2022-11-17T09:15:13.049Z,18.95
2022-11-17T09:17:43.050Z,18.02
2022-11-17T09:20:12.252Z,19.70
2022-11-17T09:22:41.839Z,19.17
2022-11-17T09:25:13.469Z,19.17
2022-11-17T09:27:41.996Z,19.10
2022-11-17T09:30:11.162Z,19.55
2022-11-17T09:32:39.366Z,18.40
2022-11-17T09:35:09.300Z,19.02
2022-11-17T09:37:37.470Z,20.38
2022-11-17T09:40:08.583Z,19.88
2022-11-17T09:42:40.902Z,19.67
2022-11-17T09:45:14.673Z,18.73
2022-11-17T09:47:48.876Z,19.33
2022-11-17T09:50:23.283Z,20.33
2022-11-17T09:52:59.553Z,19.50
2022-11-17T09:55:34.584Z,21.33
2022-11-17T09:58:12.124Z,20.73
2022-11-17T10:00:42.735Z,18.45
2022-11-17T10:03:20.051Z,20.67
2022-11-17T10:05:49.030Z,20.95
2022-11-17T10:08:20.446Z,20.02
2022-11-17T10:10:53.544Z,19.85
2022-11-17T10:13:28.171Z,21.90
2022-11-17T10:15:58.875Z,19.92
2022-11-17T10:18:38.239Z,20.48
2022-11-17T10:21:10.244Z,20.40
2022-11-17T10:23:47.383Z,20.50
2022-11-17T10:26:17.545Z,20.17
2022-11-17T10:28:45.992Z,20.55
2022-11-17T10:31:15.849Z,19.95
2022-11-17T10:33:46.545Z,19.92
2022-11-17T10:36:21.984Z,22.65
2022-11-17T10:38:52.396Z,20.73
2022-11-17T10:41:24.831Z,20.23
2022-11-17T10:44:02.388Z,20.65
2022-11-17T10:46:41.589Z,20.23
2022-11-17T10:49:25.304Z,19.73
2022-11-17T10:52:07.046Z,19.25
2022-11-17T10:54:35.200Z,19.45
2022-11-17T10:57:08.915Z,20.08
2022-11-17T10:59:45.133Z,19.23
2022-11-17T11:02:28.563Z,18.92
2022-11-17T11:05:08.214Z,19.48
2022-11-17T11:07:37.164Z,20.17
2022-11-17T11:10:15.669Z,20.35
2022-11-17T11:12:49.977Z,22.70
2022-11-17T11:15:21.655Z,20.02
2022-11-17T11:17:50.094Z,34.65
2022-11-17T11:20:21.045Z,19.20
2022-11-17T11:22:58.269Z,20.73
2022-11-17T11:25:35.713Z,17.05
2022-11-17T11:28:20.412Z,28.98
2022-11-17T11:30:59.255Z,18.77
2022-11-17T11:33:35.416Z,17.67
2022-11-17T11:36:23.176Z,17.42
2022-11-17T11:38:58.722Z,19.75
2022-11-17T11:41:43.219Z,17.25
2022-11-17T11:44:38.613Z,16.67
2022-11-17T11:47:17.809Z,18.15
2022-11-17T11:49:50.465Z,17.23
2022-11-17T11:52:22.039Z,18.10
2022-11-17T11:54:55.399Z,17.02
2022-11-17T11:57:28.294Z,17.42
2022-11-17T12:00:04.473Z,16.15
2022-11-17T12:02:43.716Z,15.80
2022-11-17T12:05:21.693Z,17.60
2022-11-17T12:07:55.574Z,16.05
2022-11-17T12:10:32.758Z,29.90
2022-11-17T12:13:01.830Z,33.47
2022-11-17T12:15:38.363Z,17.08
2022-11-17T12:18:13.745Z,16.45
2022-11-17T12:21:03.994Z,26.55
2022-11-17T12:23:50.350Z,15.95
2022-11-17T12:26:24.474Z,16.05
2022-11-17T12:29:26.931Z,35.33
2022-11-17T12:31:57.729Z,16.67
2022-11-17T12:34:28.875Z,16.17
2022-11-17T12:37:22.070Z,16.98
2022-11-17T12:42:25.843Z,15.65
2022-11-17T12:44:58.565Z,16.60
2022-11-17T12:47:30.356Z,17.58
2022-11-17T12:50:24.875Z,17.93
2022-11-17T12:53:12.218Z,17.48
2022-11-17T12:55:56.255Z,18.80
2022-11-17T12:58:32.054Z,18.73
2022-11-17T13:01:08.924Z,16.38
2022-11-17T13:03:47.852Z,21.48
2022-11-17T13:09:07.288Z,32.08
2022-11-17T13:11:36.490Z,17.05
2022-11-17T13:14:14.101Z,16.63
2022-11-17T13:16:46.808Z,18.27
2022-11-17T13:19:39.805Z,16.80
2022-11-17T13:22:16.715Z,26.90
2022-11-17T13:24:47.297Z,16.42
2022-11-17T13:27:23.439Z,18.10
2022-11-17T13:29:51.752Z,24.02
2022-11-17T13:32:23.856Z,16.42
2022-11-17T13:34:57.259Z,25.88
2022-11-17T13:37:29.720Z,19.75
2022-11-17T13:40:02.835Z,16.50
2022-11-17T13:42:33.317Z,19.92
2022-11-17T13:45:04.662Z,19.63
2022-11-17T13:47:45.519Z,18.70
2022-11-17T13:50:33.805Z,15.15
2022-11-17T13:53:05.115Z,19.60
2022-11-17T13:55:34.750Z,18.80
2022-11-17T13:58:05.006Z,18.55
2022-11-17T14:00:34.355Z,16.60
2022-11-17T14:03:04.532Z,17.67
2022-11-17T14:05:34.544Z,18.52
2022-11-17T14:08:13.945Z,17.20
2022-11-17T14:10:42.645Z,16.75
2022-11-17T14:13:21.971Z,20.40
2022-11-17T14:15:59.639Z,18.77
2022-11-17T14:18:37.302Z,19.88
2022-11-17T14:21:13.103Z,17.27
2022-11-17T14:23:41.778Z,18.58
2022-11-17T14:26:24.271Z,17.83
2022-11-17T14:28:53.378Z,18.75
2022-11-17T14:31:21.907Z,17.02
2022-11-17T14:33:50.448Z,17.25
2022-11-17T14:36:20.137Z,17.83
2022-11-17T14:38:48.746Z,19.55
2022-11-17T14:41:17.922Z,16.73
2022-11-17T14:43:46.156Z,17.98
2022-11-17T14:46:20.630Z,15.80
2022-11-17T14:48:48.844Z,18.08
2022-11-17T14:51:17.243Z,19.00
2022-11-17T14:53:47.806Z,18.33
2022-11-17T14:56:24.710Z,19.95
2022-11-17T14:58:55.595Z,18.88
2022-11-17T15:01:25.720Z,19.70
2022-11-17T15:03:55.227Z,18.80
2022-11-17T15:06:24.377Z,20.77
2022-11-17T15:08:58.432Z,19.88
2022-11-17T15:11:27.860Z,21.52
2022-11-17T15:13:56.266Z,20.77
2022-11-17T15:16:24.575Z,21.08
2022-11-17T15:18:52.823Z,23.25
2022-11-17T15:21:21.215Z,20.88
2022-11-17T15:23:49.430Z,20.75
2022-11-17T15:26:23.368Z,25.88
2022-11-17T15:28:51.688Z,21.92
2022-11-17T15:31:21.011Z,23.25
2022-11-17T15:33:49.606Z,20.23
2022-11-17T15:36:19.917Z,26.90
2022-11-17T15:38:48.544Z,30.33
2022-11-17T15:41:19.402Z,26.30
2022-11-17T15:43:47.674Z,21.17
2022-11-17T15:46:17.902Z,31.15
2022-11-17T15:48:49.239Z,22.50
2022-11-17T15:51:19.153Z,24.45
2022-11-17T15:53:48.417Z,22.75
2022-11-17T15:56:20.179Z,26.35
2022-11-17T15:58:49.666Z,24.48
2022-11-17T16:01:26.731Z,26.55
2022-11-17T16:03:59.607Z,22.52
2022-11-17T16:08:56.226Z,24.10
2022-11-17T16:11:26.954Z,22.75
2022-11-17T16:13:55.608Z,22.33
2022-11-17T16:16:25.820Z,23.90
2022-11-17T16:18:54.386Z,21.73
2022-11-17T16:21:22.746Z,25.75
2022-11-17T16:23:53.188Z,27.73
2022-11-17T16:26:22.088Z,27.13
2022-11-17T16:28:58.562Z,22.17
2022-11-17T16:31:28.546Z,24.35
2022-11-17T16:33:58.548Z,22.45
2022-11-17T16:36:34.358Z,22.02
2022-11-17T16:39:05.156Z,22.38
2022-11-17T16:41:38.851Z,23.45
2022-11-17T16:44:11.752Z,22.35
2022-11-17T16:46:43.189Z,23.30
2022-11-17T16:49:14.108Z,22.90
2022-11-17T16:51:47.098Z,22.95
2022-11-17T16:54:15.519Z,22.88
2022-11-17T16:56:43.908Z,22.95
2022-11-17T16:59:14.485Z,23.17
2022-11-17T17:01:43.098Z,23.77
2022-11-17T17:04:12.214Z,24.95
2022-11-17T17:06:41.430Z,22.75
2022-11-17T17:09:11.692Z,22.63
2022-11-17T17:11:40.242Z,22.73
2022-11-17T17:14:10.647Z,22.58
2022-11-17T17:16:40.408Z,22.75
2022-11-17T17:19:10.365Z,22.55
2022-11-17T17:21:39.798Z,24.38
2022-11-17T17:24:08.588Z,23.73
2022-11-17T17:26:37.779Z,23.02
2022-11-17T17:29:08.070Z,21.55
2022-11-17T17:31:38.088Z,23.35
2022-11-17T17:34:08.836Z,23.02
2022-11-17T17:36:38.484Z,23.95
2022-11-17T17:39:07.013Z,24.65
2022-11-17T17:41:41.095Z,24.67
2022-11-17T17:44:14.217Z,25.08
2022-11-17T17:46:45.283Z,26.23
2022-11-17T17:49:15.199Z,24.98
2022-11-17T17:51:45.044Z,25.65
2022-11-17T17:54:17.039Z,27.63
2022-11-17T17:56:45.500Z,25.57
2022-11-17T17:59:16.996Z,26.70
2022-11-17T18:01:47.641Z,26.73
2022-11-17T18:04:17.756Z,25.50
2022-11-17T18:06:47.895Z,27.35
2022-11-17T18:09:19.374Z,27.33
2022-11-17T18:11:50.081Z,28.13
2022-11-17T18:14:29.477Z,29.55
2022-11-17T18:16:57.704Z,29.35
2022-11-17T18:19:32.731Z,29.27
2022-11-17T18:22:01.424Z,28.33
2022-11-17T18:24:47.622Z,27.52
2022-11-17T18:27:22.444Z,30.17
2022-11-17T18:29:50.634Z,30.25
2022-11-17T18:32:18.829Z,30.88
2022-11-17T18:34:48.457Z,29.63
2022-11-17T18:37:16.752Z,31.60
2022-11-17T18:39:45.172Z,29.42
2022-11-17T18:42:15.009Z,30.38
2022-11-17T18:44:43.127Z,30.38
2022-11-17T18:47:11.268Z,30.15
2022-11-17T18:49:42.186Z,30.05
2022-11-17T18:52:13.097Z,30.35
2022-11-17T18:54:41.609Z,29.40
2022-11-17T18:57:09.744Z,31.00
2022-11-17T18:59:37.869Z,29.02
2022-11-17T19:02:06.104Z,29.95
2022-11-17T19:04:34.272Z,29.85
2022-11-17T19:07:02.435Z,30.23
2022-11-17T19:09:34.938Z,31.10
2022-11-17T19:12:03.092Z,29.92
2022-11-17T19:14:31.322Z,30.00
2022-11-17T19:16:59.496Z,30.75
2022-11-17T19:19:27.618Z,31.63
2022-11-17T19:21:55.710Z,31.58
2022-11-17T19:24:23.810Z,32.50
2022-11-17T19:26:53.337Z,30.73
2022-11-17T19:29:21.876Z,31.30
2022-11-17T19:31:52.396Z,31.38
2022-11-17T19:34:20.709Z,31.77
2022-11-17T19:36:49.998Z,32.55
2022-11-17T19:39:18.528Z,31.98
2022-11-17T19:41:47.730Z,32.05
2022-11-17T19:44:17.411Z,33.00
2022-11-17T19:46:47.760Z,32.35
2022-11-17T19:49:16.051Z,32.30
2022-11-17T19:51:44.389Z,32.97
2022-11-17T19:54:14.166Z,34.58
2022-11-17T19:56:42.343Z,35.03
2022-11-17T19:59:15.740Z,34.70
2022-11-17T20:01:46.818Z,34.83
2022-11-17T20:04:15.226Z,35.00
2022-11-17T20:06:43.518Z,33.65
2022-11-17T20:09:13.931Z,34.08
2022-11-17T20:11:42.711Z,36.05
2022-11-17T20:14:10.856Z,35.80
2022-11-17T20:16:39.470Z,35.13
2022-11-17T20:19:10.438Z,35.33
2022-11-17T20:21:38.500Z,36.03
2022-11-17T20:24:07.106Z,34.70
2022-11-17T20:26:36.185Z,35.10
2022-11-17T20:29:04.288Z,35.33
2022-11-17T20:31:34.178Z,36.08
2022-11-17T20:34:04.179Z,35.35
2022-11-17T20:36:35.037Z,34.83
2022-11-17T20:39:07.672Z,33.38
2022-11-17T20:41:36.147Z,34.42
2022-11-17T20:44:04.656Z,33.03
2022-11-17T20:46:33.114Z,32.05
2022-11-17T20:49:03.442Z,31.48
2022-11-17T20:51:35.418Z,33.20
2022-11-17T20:54:05.814Z,34.78
2022-11-17T20:56:34.072Z,33.22
2022-11-17T20:59:02.300Z,33.20
2022-11-17T21:01:30.480Z,32.28
2022-11-17T21:03:58.795Z,35.47
2022-11-17T21:06:27.839Z,31.58
2022-11-17T21:08:57.616Z,33.95
2022-11-17T21:11:43.641Z,34.80
2022-11-17T21:14:15.701Z,34.72
2022-11-17T21:16:45.643Z,33.73
2022-11-17T21:19:15.157Z,33.33
2022-11-17T21:21:43.844Z,35.15
2022-11-17T21:24:13.513Z,34.65
2022-11-17T21:26:41.724Z,34.42
2022-11-17T21:29:09.825Z,33.83
2022-11-17T21:31:40.094Z,33.10
2022-11-17T21:34:08.707Z,33.92
2022-11-17T21:36:37.172Z,34.25
2022-11-17T21:39:05.705Z,32.20
2022-11-17T21:41:37.765Z,33.28
2022-11-17T21:44:06.301Z,33.27
2022-11-17T21:46:36.089Z,33.30
2022-11-17T21:49:04.756Z,32.13
2022-11-17T21:51:38.206Z,33.03
2022-11-17T21:54:08.071Z,31.75
2022-11-17T21:56:37.854Z,31.65
2022-11-17T21:59:08.401Z,32.03
2022-11-17T22:01:37.433Z,31.20
2022-11-17T22:04:06.011Z,32.58
2022-11-17T22:06:34.370Z,31.92
2022-11-17T22:09:02.596Z,32.55
2022-11-17T22:11:39.115Z,31.80
2022-11-17T22:14:11.076Z,33.70
2022-11-17T22:16:41.026Z,32.40
2022-11-17T22:19:12.590Z,32.67
2022-11-17T22:21:41.384Z,33.45
2022-11-17T22:24:11.432Z,33.08
2022-11-17T22:26:41.201Z,33.38
2022-11-17T22:29:12.621Z,33.05
2022-11-17T22:31:40.899Z,33.42
2022-11-17T22:34:09.082Z,34.03
2022-11-17T22:36:37.542Z,32.65
2022-11-17T22:39:06.556Z,33.72
2022-11-17T22:41:37.490Z,32.75
2022-11-17T22:44:06.283Z,32.90
2022-11-17T22:46:36.357Z,33.38
2022-11-17T22:49:04.504Z,33.03
2022-11-17T22:51:50.004Z,33.25
2022-11-17T22:54:18.181Z,33.92
2022-11-17T22:56:46.369Z,34.13
2022-11-17T22:59:14.868Z,35.13
2022-11-17T23:01:44.637Z,33.22
2022-11-17T23:04:12.960Z,36.53
2022-11-17T23:06:41.044Z,35.20
2022-11-17T23:09:09.175Z,34.88
2022-11-17T23:11:38.557Z,35.85
2022-11-17T23:14:08.234Z,35.33
2022-11-17T23:16:36.689Z,36.17
2022-11-17T23:19:09.429Z,35.38
2022-11-17T23:21:40.227Z,36.15
2022-11-17T23:24:12.444Z,36.33
2022-11-17T23:26:41.083Z,35.53
2022-11-17T23:29:10.402Z,35.95
2022-11-17T23:31:39.131Z,36.72
2022-11-17T23:34:10.049Z,36.78
2022-11-17T23:36:39.467Z,38.55
2022-11-17T23:39:07.763Z,37.60
2022-11-17T23:41:35.947Z,38.60
2022-11-17T23:44:04.119Z,39.58
2022-11-17T23:46:32.278Z,38.75
2022-11-17T23:49:00.410Z,39.42
2022-11-17T23:51:30.030Z,39.30
2022-11-17T23:54:00.214Z,38.42
2022-11-17T23:56:33.504Z,39.42
2022-11-17T23:59:01.903Z,40.08
